createdAt,value
2023-04-27T00:04:56.687Z,6.60
2023-04-27T00:09:59.328Z,5.78
2023-04-27T00:15:01.968Z,5.63
2023-04-27T00:20:07.298Z,6.03
2023-04-27T00:25:09.910Z,4.90
2023-04-27T00:30:15.881Z,5.00
2023-04-27T00:35:18.292Z,4.90
2023-04-27T00:40:22.077Z,5.50
2023-04-27T00:50:30.181Z,5.40
2023-04-27T00:55:34.115Z,5.45
2023-04-27T01:00:40.278Z,6.63
2023-04-27T01:05:42.810Z,5.88
2023-04-27T01:10:45.964Z,5.97
2023-04-27T01:15:48.853Z,5.43
2023-04-27T01:20:56.305Z,5.67
2023-04-27T01:25:58.786Z,5.80
2023-04-27T01:31:01.506Z,6.40
2023-04-27T01:36:04.257Z,6.05
2023-04-27T01:41:15.949Z,6.17
2023-04-27T01:46:18.449Z,5.97
2023-04-27T01:51:21.625Z,6.13
2023-04-27T01:56:24.854Z,5.63
2023-04-27T02:01:29.476Z,6.40
2023-04-27T02:06:32.293Z,6.20
2023-04-27T02:11:35.067Z,5.90
2023-04-27T02:16:37.910Z,6.60
2023-04-27T02:21:41.762Z,6.60
2023-04-27T02:31:49.159Z,7.07
2023-04-27T02:36:52.180Z,7.72
2023-04-27T02:41:54.610Z,6.10
2023-04-27T02:46:57.125Z,6.60
2023-04-27T02:52:07.713Z,7.43
2023-04-27T02:57:10.177Z,6.27
2023-04-27T03:02:13.158Z,6.33
2023-04-27T03:07:15.752Z,6.63
2023-04-27T03:12:18.679Z,6.60
2023-04-27T03:17:25.703Z,7.00
2023-04-27T03:22:28.650Z,6.60
2023-04-27T03:27:31.640Z,6.60
2023-04-27T03:32:34.150Z,6.73
2023-04-27T03:37:37.017Z,7.73
2023-04-27T03:42:39.969Z,4.77
2023-04-27T03:47:42.583Z,6.07
2023-04-27T03:52:45.065Z,6.72
2023-04-27T03:57:50.273Z,6.00
2023-04-27T04:02:53.086Z,6.88
2023-04-27T04:07:56.161Z,6.10
2023-04-27T04:13:00.757Z,6.28
2023-04-27T04:18:03.405Z,6.25
2023-04-27T04:23:07.399Z,5.68
2023-04-27T04:28:09.816Z,6.07
2023-04-27T04:33:14.248Z,6.90
2023-04-27T04:38:18.466Z,6.35
2023-04-27T04:48:24.964Z,6.30
2023-04-27T04:53:27.622Z,6.72
2023-04-27T04:58:31.474Z,6.00
2023-04-27T05:03:34.251Z,6.35
2023-04-27T05:08:37.403Z,6.47
2023-04-27T05:13:40.967Z,5.78
2023-04-27T05:23:45.923Z,6.00
2023-04-27T05:28:49.737Z,6.88
2023-04-27T05:33:52.233Z,6.00
2023-04-27T05:38:56.134Z,6.78
2023-04-27T05:44:00.479Z,7.60
2023-04-27T05:49:03.038Z,6.80
2023-04-27T05:54:05.514Z,7.55
2023-04-27T05:59:08.331Z,7.00
2023-04-27T06:04:11.867Z,5.50
2023-04-27T06:09:15.010Z,6.10
2023-04-27T06:14:17.966Z,6.03
2023-04-27T06:19:20.384Z,5.90
2023-04-27T06:24:22.943Z,5.38
2023-04-27T06:29:26.136Z,6.50
2023-04-27T06:34:30.664Z,7.03
2023-04-27T06:39:33.969Z,6.88
2023-04-27T06:44:37.652Z,6.07
2023-04-27T06:54:43.604Z,5.73
2023-04-27T06:59:46.159Z,6.13
2023-04-27T07:04:48.940Z,6.97
2023-04-27T07:09:51.411Z,5.80
2023-04-27T07:14:53.885Z,5.20
2023-04-27T07:19:56.751Z,4.57
2023-04-27T07:24:59.210Z,4.13
2023-04-27T07:30:02.135Z,3.83
2023-04-27T07:35:07.041Z,4.10
2023-04-27T07:40:16.638Z,3.53
2023-04-27T07:45:19.369Z,2.60
2023-04-27T07:50:24.654Z,3.10
2023-04-27T07:55:27.658Z,2.92
2023-04-27T08:00:30.119Z,2.93
2023-04-27T08:05:32.734Z,2.50
2023-04-27T08:10:35.953Z,2.78
2023-04-27T08:15:38.947Z,2.90
2023-04-27T08:20:41.483Z,3.00
2023-04-27T08:25:44.044Z,2.80
2023-04-27T08:30:46.607Z,3.90
2023-04-27T08:35:51.299Z,4.50
2023-04-27T08:40:53.791Z,5.57
2023-04-27T08:45:56.737Z,3.63
2023-04-27T08:50:59.907Z,4.30
2023-04-27T08:56:02.751Z,2.58
2023-04-27T09:01:09.939Z,2.65
2023-04-27T09:06:13.577Z,2.72
2023-04-27T09:11:32.518Z,3.10
2023-04-27T09:16:35.074Z,6.32
2023-04-27T09:21:38.684Z,4.60
2023-04-27T09:26:43.218Z,5.15
2023-04-27T09:31:46.815Z,2.40
2023-04-27T09:36:49.814Z,3.15
2023-04-27T09:41:53.548Z,2.22
2023-04-27T09:46:58.937Z,2.15
2023-04-27T09:52:01.687Z,2.33
2023-04-27T09:57:17.554Z,2.37
2023-04-27T10:02:25.125Z,2.60
2023-04-27T10:07:31.272Z,4.00
2023-04-27T10:12:38.871Z,6.35
2023-04-27T10:17:51.465Z,6.72
2023-04-27T10:22:53.946Z,9.55
2023-04-27T10:27:59.434Z,5.67
2023-04-27T10:33:09.818Z,4.00
2023-04-27T10:38:22.087Z,6.05
2023-04-27T10:43:30.164Z,3.50
2023-04-27T10:48:32.604Z,3.25
2023-04-27T10:53:36.224Z,3.83
2023-04-27T11:03:49.112Z,2.30
2023-04-27T11:08:52.231Z,2.33
2023-04-27T11:13:55.869Z,4.40
2023-04-27T11:19:04.724Z,2.90
2023-04-27T11:24:15.666Z,6.00
2023-04-27T11:29:18.519Z,2.70
2023-04-27T11:34:23.094Z,2.20
2023-04-27T11:39:28.402Z,2.60
2023-04-27T11:44:31.057Z,3.00
2023-04-27T11:49:34.633Z,2.25
2023-04-27T11:54:39.046Z,2.53
2023-04-27T11:59:41.861Z,2.03
2023-04-27T12:04:44.467Z,2.63
2023-04-27T12:09:47.869Z,2.20
2023-04-27T12:14:52.614Z,1.90
2023-04-27T12:19:55.887Z,2.85
2023-04-27T12:30:01.484Z,2.50
2023-04-27T12:35:04.214Z,3.00
2023-04-27T12:40:09.235Z,3.20
2023-04-27T12:45:11.912Z,3.28
2023-04-27T12:50:15.901Z,3.87
2023-04-27T12:55:31.602Z,3.70
2023-04-27T13:00:36.978Z,8.48
2023-04-27T13:05:39.613Z,7.00
2023-04-27T13:10:42.584Z,6.87
2023-04-27T13:15:45.092Z,4.10
2023-04-27T13:20:48.729Z,2.97
2023-04-27T13:25:51.257Z,4.43
2023-04-27T13:30:53.742Z,3.70
2023-04-27T13:35:56.419Z,3.43
2023-04-27T13:40:58.958Z,2.67
2023-04-27T13:46:02.906Z,4.20
2023-04-27T13:51:06.527Z,3.50
2023-04-27T13:56:10.133Z,3.47
2023-04-27T14:01:17.271Z,4.10
2023-04-27T14:06:19.829Z,3.97
2023-04-27T14:11:24.495Z,4.53
2023-04-27T14:16:27.197Z,4.55
2023-04-27T14:21:29.781Z,8.63
2023-04-27T14:26:32.257Z,5.30
2023-04-27T14:31:34.747Z,45.87
2023-04-27T14:36:37.351Z,16.75
2023-04-27T14:41:39.828Z,8.90
2023-04-27T14:46:47.419Z,12.60
2023-04-27T14:51:49.987Z,12.75
2023-04-27T14:56:52.503Z,10.63
2023-04-27T15:01:55.087Z,7.97
2023-04-27T15:06:57.563Z,13.60
2023-04-27T15:12:00.034Z,10.85
2023-04-27T15:17:03.296Z,11.93
2023-04-27T15:22:05.964Z,13.63
2023-04-27T15:27:10.044Z,13.48
2023-04-27T15:32:13.543Z,13.77
2023-04-27T15:37:16.176Z,24.80
2023-04-27T15:42:18.642Z,18.60
2023-04-27T15:47:23.232Z,17.33
2023-04-27T15:52:28.141Z,13.57
2023-04-27T15:57:32.850Z,10.25
2023-04-27T16:02:37.819Z,12.82
2023-04-27T16:12:43.907Z,28.27
2023-04-27T16:17:46.475Z,14.95
2023-04-27T16:22:49.025Z,16.73
2023-04-27T16:27:51.742Z,19.13
2023-04-27T16:32:54.419Z,10.70
2023-04-27T16:37:56.997Z,15.27
2023-04-27T16:42:59.457Z,12.63
2023-04-27T16:48:03.640Z,28.63
2023-04-27T16:53:07.537Z,41.70
2023-04-27T16:58:11.238Z,45.08
2023-04-27T17:03:13.772Z,27.67
2023-04-27T17:08:16.682Z,33.78
2023-04-27T17:13:19.182Z,19.33
2023-04-27T17:18:25.393Z,10.32
2023-04-27T17:23:28.074Z,16.83
2023-04-27T17:28:31.305Z,9.67
2023-04-27T17:33:34.024Z,9.07
2023-04-27T17:38:37.934Z,40.88
2023-04-27T17:43:40.647Z,32.55
2023-04-27T17:48:44.460Z,14.27
2023-04-27T17:53:46.912Z,8.70
2023-04-27T17:58:49.443Z,43.78
2023-04-27T18:03:52.301Z,35.63
2023-04-27T18:08:54.973Z,43.72
2023-04-27T18:13:58.476Z,50.97
2023-04-27T18:19:01.044Z,104.50
2023-04-27T18:24:03.880Z,102.17
2023-04-27T18:29:06.797Z,72.23
2023-04-27T18:34:09.797Z,58.17
2023-04-27T18:44:16.975Z,44.45
2023-04-27T18:54:22.098Z,38.65
2023-04-27T18:59:24.592Z,32.28
2023-04-27T19:04:35.775Z,27.60
2023-04-27T19:09:39.234Z,52.42
2023-04-27T19:14:42.330Z,56.40
2023-04-27T19:19:46.106Z,78.03
2023-04-27T19:24:51.368Z,88.63
2023-04-27T19:29:56.039Z,89.40
2023-04-27T19:34:58.797Z,115.18
2023-04-27T19:40:01.510Z,119.37
2023-04-27T19:45:04.364Z,106.63
2023-04-27T19:50:07.310Z,104.37
2023-04-27T19:55:11.246Z,107.13
2023-04-27T20:00:14.411Z,100.28
2023-04-27T20:05:17.434Z,111.05
2023-04-27T20:10:20.093Z,107.20
2023-04-27T20:15:23.410Z,138.43
2023-04-27T20:20:26.021Z,111.18
2023-04-27T20:25:28.567Z,71.63
2023-04-27T20:30:31.125Z,52.63
2023-04-27T20:35:34.229Z,53.03
2023-04-27T20:40:38.008Z,54.67
2023-04-27T20:50:43.481Z,71.05
2023-04-27T20:55:46.560Z,71.72
2023-04-27T21:00:49.085Z,74.43
2023-04-27T21:05:51.866Z,76.70
2023-04-27T21:10:54.920Z,70.00
2023-04-27T21:15:59.126Z,77.00
2023-04-27T21:21:01.924Z,62.03
2023-04-27T21:26:04.550Z,43.97
2023-04-27T21:31:07.438Z,39.33
2023-04-27T21:36:09.997Z,36.28
2023-04-27T21:41:12.488Z,32.83
2023-04-27T21:46:14.998Z,33.40
2023-04-27T21:51:18.223Z,33.63
2023-04-27T21:56:21.385Z,28.45
2023-04-27T22:01:24.081Z,29.77
2023-04-27T22:06:27.810Z,25.48
2023-04-27T22:16:32.732Z,20.15
2023-04-27T22:21:35.273Z,17.90
2023-04-27T22:26:37.802Z,16.45
2023-04-27T22:31:41.547Z,16.48
2023-04-27T22:41:46.575Z,14.68
2023-04-27T22:46:49.194Z,13.82
2023-04-27T22:51:51.836Z,9.98
2023-04-27T22:56:54.502Z,18.25
2023-04-27T23:01:57.096Z,16.98
2023-04-27T23:07:00.318Z,21.20
2023-04-27T23:12:07.991Z,22.50
2023-04-27T23:17:10.631Z,23.38
2023-04-27T23:22:13.083Z,25.35
2023-04-27T23:27:15.793Z,27.23
2023-04-27T23:32:18.358Z,23.65
2023-04-27T23:37:21.823Z,28.80
2023-04-27T23:42:24.319Z,31.00
2023-04-27T23:47:26.957Z,31.73
2023-04-27T23:52:30.457Z,26.20
2023-04-27T23:57:33.010Z,27.02
